sensor_id;sensor_type;location;lat;lon;timestamp;P1;durP1;ratioP1;P2;durP2;ratioP2
23260;SDS011;11799;47.740;-3.390;2022-12-18T00:00:42;25.47;;;13.53;;
23260;SDS011;11799;47.740;-3.390;2022-12-18T00:03:09;28.37;;;14.30;;
23260;SDS011;11799;47.740;-3.390;2022-12-18T00:05:35;28.03;;;14.07;;
23260;SDS011;11799;47.740;-3.390;2022-12-18T00:08:01;26.80;;;13.73;;
23260;SDS011;11799;47.740;-3.390;2022-12-18T00:10:27;32.93;;;13.47;;
23260;SDS011;11799;47.740;-3.390;2022-12-18T00:12:54;29.83;;;14.47;;
23260;SDS011;11799;47.740;-3.390;2022-12-18T00:15:19;26.67;;;14.43;;
23260;SDS011;11799;47.740;-3.390;2022-12-18T00:17:45;26.80;;;14.73;;
23260;SDS011;11799;47.740;-3.390;2022-12-18T00:20:11;28.63;;;14.80;;
23260;SDS011;11799;47.740;-3.390;2022-12-18T00:22:37;29.03;;;14.00;;
23260;SDS011;11799;47.740;-3.390;2022-12-18T00:25:02;27.23;;;14.30;;
23260;SDS011;11799;47.740;-3.390;2022-12-18T00:27:28;29.57;;;15.30;;
23260;SDS011;11799;47.740;-3.390;2022-12-18T00:29:54;28.70;;;14.17;;
23260;SDS011;11799;47.740;-3.390;2022-12-18T00:32:20;28.17;;;13.70;;
23260;SDS011;11799;47.740;-3.390;2022-12-18T00:34:45;26.17;;;13.47;;
23260;SDS011;11799;47.740;-3.390;2022-12-18T00:37:11;28.27;;;14.77;;
23260;SDS011;11799;47.740;-3.390;2022-12-18T00:39:36;30.80;;;14.63;;
23260;SDS011;11799;47.740;-3.390;2022-12-18T00:42:02;28.70;;;14.63;;
23260;SDS011;11799;47.740;-3.390;2022-12-18T00:44:47;32.77;;;15.60;;
23260;SDS011;11799;47.740;-3.390;2022-12-18T00:47:12;26.40;;;14.50;;
23260;SDS011;11799;47.740;-3.390;2022-12-18T00:49:38;29.70;;;14.43;;
23260;SDS011;11799;47.740;-3.390;2022-12-18T00:52:03;27.27;;;14.10;;
23260;SDS011;11799;47.740;-3.390;2022-12-18T00:54:29;27.43;;;14.53;;
23260;SDS011;11799;47.740;-3.390;2022-12-18T00:56:55;29.07;;;13.83;;
23260;SDS011;11799;47.740;-3.390;2022-12-18T00:59:21;28.30;;;14.87;;
23260;SDS011;11799;47.740;-3.390;2022-12-18T01:01:46;28.13;;;14.13;;
23260;SDS011;11799;47.740;-3.390;2022-12-18T01:04:12;32.00;;;14.43;;
23260;SDS011;11799;47.740;-3.390;2022-12-18T01:06:38;30.93;;;14.63;;
23260;SDS011;11799;47.740;-3.390;2022-12-18T01:09:04;28.00;;;13.50;;
23260;SDS011;11799;47.740;-3.390;2022-12-18T01:11:29;26.23;;;13.80;;
23260;SDS011;11799;47.740;-3.390;2022-12-18T01:13:55;26.63;;;14.43;;
23260;SDS011;11799;47.740;-3.390;2022-12-18T01:16:21;25.83;;;15.17;;
23260;SDS011;11799;47.740;-3.390;2022-12-18T01:18:50;25.80;;;14.07;;
23260;SDS011;11799;47.740;-3.390;2022-12-18T01:21:18;27.40;;;14.77;;
23260;SDS011;11799;47.740;-3.390;2022-12-18T01:23:44;26.90;;;14.57;;
23260;SDS011;11799;47.740;-3.390;2022-12-18T01:26:11;27.37;;;14.93;;
23260;SDS011;11799;47.740;-3.390;2022-12-18T01:28:38;28.17;;;14.07;;
23260;SDS011;11799;47.740;-3.390;2022-12-18T01:31:11;28.23;;;14.77;;
23260;SDS011;11799;47.740;-3.390;2022-12-18T01:33:48;27.37;;;14.07;;
23260;SDS011;11799;47.740;-3.390;2022-12-18T01:36:21;24.77;;;13.53;;
23260;SDS011;11799;47.740;-3.390;2022-12-18T01:38:49;32.63;;;14.63;;
23260;SDS011;11799;47.740;-3.390;2022-12-18T01:41:19;29.70;;;14.53;;
23260;SDS011;11799;47.740;-3.390;2022-12-18T01:43:54;20.63;;;10.80;;
23260;SDS011;11799;47.740;-3.390;2022-12-18T01:46:22;26.73;;;14.00;;
23260;SDS011;11799;47.740;-3.390;2022-12-18T01:48:51;26.33;;;13.97;;
23260;SDS011;11799;47.740;-3.390;2022-12-18T01:51:19;27.23;;;13.80;;
23260;SDS011;11799;47.740;-3.390;2022-12-18T01:53:46;24.43;;;13.17;;
23260;SDS011;11799;47.740;-3.390;2022-12-18T01:56:16;27.00;;;14.43;;
23260;SDS011;11799;47.740;-3.390;2022-12-18T01:58:46;29.10;;;14.77;;
23260;SDS011;11799;47.740;-3.390;2022-12-18T02:01:23;29.50;;;14.80;;
23260;SDS011;11799;47.740;-3.390;2022-12-18T02:03:50;25.43;;;13.57;;
23260;SDS011;11799;47.740;-3.390;2022-12-18T02:09:16;27.67;;;14.07;;
23260;SDS011;11799;47.740;-3.390;2022-12-18T02:14:35;26.67;;;14.20;;
23260;SDS011;11799;47.740;-3.390;2022-12-18T02:17:18;24.77;;;13.80;;
23260;SDS011;11799;47.740;-3.390;2022-12-18T02:27:46;27.67;;;14.33;;
23260;SDS011;11799;47.740;-3.390;2022-12-18T02:30:16;20.15;;;10.68;;
23260;SDS011;11799;47.740;-3.390;2022-12-18T02:32:44;26.67;;;14.20;;
23260;SDS011;11799;47.740;-3.390;2022-12-18T02:35:15;26.03;;;13.73;;
23260;SDS011;11799;47.740;-3.390;2022-12-18T02:37:47;23.87;;;14.00;;
23260;SDS011;11799;47.740;-3.390;2022-12-18T02:40:14;28.77;;;14.10;;
23260;SDS011;11799;47.740;-3.390;2022-12-18T02:42:41;25.80;;;14.50;;
23260;SDS011;11799;47.740;-3.390;2022-12-18T02:45:09;26.77;;;14.50;;
23260;SDS011;11799;47.740;-3.390;2022-12-18T02:47:37;26.27;;;13.67;;
23260;SDS011;11799;47.740;-3.390;2022-12-18T02:55:59;27.70;;;14.27;;
23260;SDS011;11799;47.740;-3.390;2022-12-18T02:58:47;27.77;;;13.60;;
23260;SDS011;11799;47.740;-3.390;2022-12-18T03:01:57;25.07;;;13.53;;
23260;SDS011;11799;47.740;-3.390;2022-12-18T03:04:38;28.93;;;13.80;;
23260;SDS011;11799;47.740;-3.390;2022-12-18T03:07:11;24.77;;;14.03;;
23260;SDS011;11799;47.740;-3.390;2022-12-18T03:09:45;28.13;;;13.47;;
23260;SDS011;11799;47.740;-3.390;2022-12-18T03:12:30;30.95;;;13.88;;
23260;SDS011;11799;47.740;-3.390;2022-12-18T03:15:04;17.33;;;9.75;;
23260;SDS011;11799;47.740;-3.390;2022-12-18T03:17:40;27.10;;;14.17;;
23260;SDS011;11799;47.740;-3.390;2022-12-18T03:20:12;25.87;;;13.37;;
23260;SDS011;11799;47.740;-3.390;2022-12-18T03:25:09;25.40;;;12.07;;
23260;SDS011;11799;47.740;-3.390;2022-12-18T03:27:42;26.80;;;13.70;;
23260;SDS011;11799;47.740;-3.390;2022-12-18T03:30:14;24.13;;;13.83;;
23260;SDS011;11799;47.740;-3.390;2022-12-18T03:33:01;22.77;;;13.50;;
23260;SDS011;11799;47.740;-3.390;2022-12-18T03:35:35;23.17;;;13.00;;
23260;SDS011;11799;47.740;-3.390;2022-12-18T03:38:04;25.25;;;13.27;;
23260;SDS011;11799;47.740;-3.390;2022-12-18T03:40:40;25.00;;;13.40;;
23260;SDS011;11799;47.740;-3.390;2022-12-18T03:43:20;23.17;;;13.30;;
23260;SDS011;11799;47.740;-3.390;2022-12-18T03:49:01;24.30;;;13.37;;
23260;SDS011;11799;47.740;-3.390;2022-12-18T03:52:01;24.43;;;13.40;;
23260;SDS011;11799;47.740;-3.390;2022-12-18T03:54:26;24.40;;;12.73;;
23260;SDS011;11799;47.740;-3.390;2022-12-18T03:57:05;32.17;;;15.05;;
23260;SDS011;11799;47.740;-3.390;2022-12-18T03:59:36;21.90;;;12.83;;
23260;SDS011;11799;47.740;-3.390;2022-12-18T04:02:03;26.80;;;14.15;;
23260;SDS011;11799;47.740;-3.390;2022-12-18T04:04:32;26.40;;;14.23;;
23260;SDS011;11799;47.740;-3.390;2022-12-18T04:07:01;23.08;;;13.40;;
23260;SDS011;11799;47.740;-3.390;2022-12-18T04:09:28;24.98;;;13.55;;
23260;SDS011;11799;47.740;-3.390;2022-12-18T04:11:57;25.73;;;13.80;;
23260;SDS011;11799;47.740;-3.390;2022-12-18T04:14:23;24.60;;;13.43;;
23260;SDS011;11799;47.740;-3.390;2022-12-18T04:16:52;23.45;;;13.25;;
23260;SDS011;11799;47.740;-3.390;2022-12-18T04:19:22;28.03;;;13.60;;
23260;SDS011;11799;47.740;-3.390;2022-12-18T04:21:50;25.73;;;13.88;;
23260;SDS011;11799;47.740;-3.390;2022-12-18T04:24:16;24.35;;;13.57;;
23260;SDS011;11799;47.740;-3.390;2022-12-18T04:26:51;23.92;;;13.23;;
23260;SDS011;11799;47.740;-3.390;2022-12-18T04:29:22;24.05;;;13.27;;
23260;SDS011;11799;47.740;-3.390;2022-12-18T04:31:48;28.05;;;14.40;;
23260;SDS011;11799;47.740;-3.390;2022-12-18T04:34:14;27.00;;;13.93;;
23260;SDS011;11799;47.740;-3.390;2022-12-18T04:36:46;22.33;;;12.70;;
23260;SDS011;11799;47.740;-3.390;2022-12-18T04:39:13;23.80;;;13.10;;
23260;SDS011;11799;47.740;-3.390;2022-12-18T04:41:40;22.23;;;12.50;;
23260;SDS011;11799;47.740;-3.390;2022-12-18T04:44:07;23.75;;;13.35;;
23260;SDS011;11799;47.740;-3.390;2022-12-18T04:46:33;23.77;;;14.10;;
23260;SDS011;11799;47.740;-3.390;2022-12-18T04:48:58;21.98;;;13.63;;
23260;SDS011;11799;47.740;-3.390;2022-12-18T04:51:24;23.38;;;13.60;;
23260;SDS011;11799;47.740;-3.390;2022-12-18T04:53:49;23.77;;;13.77;;
23260;SDS011;11799;47.740;-3.390;2022-12-18T04:56:15;24.60;;;13.73;;
23260;SDS011;11799;47.740;-3.390;2022-12-18T04:58:42;27.80;;;14.45;;
23260;SDS011;11799;47.740;-3.390;2022-12-18T05:01:09;26.33;;;14.50;;
23260;SDS011;11799;47.740;-3.390;2022-12-18T05:03:36;26.45;;;13.98;;
23260;SDS011;11799;47.740;-3.390;2022-12-18T05:06:02;27.80;;;14.07;;
23260;SDS011;11799;47.740;-3.390;2022-12-18T05:08:28;23.40;;;13.73;;
23260;SDS011;11799;47.740;-3.390;2022-12-18T05:11:00;26.83;;;14.35;;
23260;SDS011;11799;47.740;-3.390;2022-12-18T05:13:27;24.17;;;13.63;;
23260;SDS011;11799;47.740;-3.390;2022-12-18T05:15:54;26.02;;;14.15;;
23260;SDS011;11799;47.740;-3.390;2022-12-18T05:18:20;24.85;;;14.02;;
23260;SDS011;11799;47.740;-3.390;2022-12-18T05:20:47;25.98;;;13.77;;
23260;SDS011;11799;47.740;-3.390;2022-12-18T05:23:12;26.02;;;13.90;;
23260;SDS011;11799;47.740;-3.390;2022-12-18T05:25:38;26.25;;;13.68;;
23260;SDS011;11799;47.740;-3.390;2022-12-18T05:28:03;25.25;;;13.05;;
23260;SDS011;11799;47.740;-3.390;2022-12-18T05:30:29;23.20;;;13.68;;
23260;SDS011;11799;47.740;-3.390;2022-12-18T05:32:55;24.63;;;13.48;;
23260;SDS011;11799;47.740;-3.390;2022-12-18T05:35:21;25.83;;;14.38;;
23260;SDS011;11799;47.740;-3.390;2022-12-18T05:37:46;28.20;;;14.85;;
23260;SDS011;11799;47.740;-3.390;2022-12-18T05:40:12;28.88;;;14.48;;
23260;SDS011;11799;47.740;-3.390;2022-12-18T05:42:38;25.33;;;13.75;;
23260;SDS011;11799;47.740;-3.390;2022-12-18T05:45:04;25.33;;;13.65;;
23260;SDS011;11799;47.740;-3.390;2022-12-18T05:47:30;29.27;;;14.25;;
23260;SDS011;11799;47.740;-3.390;2022-12-18T05:49:56;29.40;;;14.48;;
23260;SDS011;11799;47.740;-3.390;2022-12-18T05:52:21;27.13;;;14.18;;
23260;SDS011;11799;47.740;-3.390;2022-12-18T05:54:47;28.00;;;13.65;;
23260;SDS011;11799;47.740;-3.390;2022-12-18T05:57:13;29.67;;;15.52;;
23260;SDS011;11799;47.740;-3.390;2022-12-18T05:59:38;30.08;;;14.50;;
23260;SDS011;11799;47.740;-3.390;2022-12-18T06:02:04;25.70;;;15.00;;
23260;SDS011;11799;47.740;-3.390;2022-12-18T06:04:29;25.83;;;14.57;;
23260;SDS011;11799;47.740;-3.390;2022-12-18T06:06:55;27.52;;;13.40;;
23260;SDS011;11799;47.740;-3.390;2022-12-18T06:09:21;29.30;;;15.27;;
23260;SDS011;11799;47.740;-3.390;2022-12-18T06:11:46;25.88;;;14.38;;
23260;SDS011;11799;47.740;-3.390;2022-12-18T06:14:12;27.20;;;15.25;;
23260;SDS011;11799;47.740;-3.390;2022-12-18T06:16:38;26.88;;;15.10;;
23260;SDS011;11799;47.740;-3.390;2022-12-18T06:19:04;26.65;;;14.30;;
23260;SDS011;11799;47.740;-3.390;2022-12-18T06:21:31;27.30;;;15.23;;
23260;SDS011;11799;47.740;-3.390;2022-12-18T06:23:57;29.33;;;14.13;;
23260;SDS011;11799;47.740;-3.390;2022-12-18T06:26:23;25.23;;;14.98;;
23260;SDS011;11799;47.740;-3.390;2022-12-18T06:28:49;25.90;;;14.75;;
23260;SDS011;11799;47.740;-3.390;2022-12-18T06:31:15;31.15;;;16.15;;
23260;SDS011;11799;47.740;-3.390;2022-12-18T06:33:40;27.30;;;14.23;;
23260;SDS011;11799;47.740;-3.390;2022-12-18T06:36:12;29.00;;;15.20;;
23260;SDS011;11799;47.740;-3.390;2022-12-18T06:38:40;29.42;;;15.02;;
23260;SDS011;11799;47.740;-3.390;2022-12-18T06:41:08;27.40;;;15.25;;
23260;SDS011;11799;47.740;-3.390;2022-12-18T06:43:34;28.10;;;15.07;;
23260;SDS011;11799;47.740;-3.390;2022-12-18T06:46:00;25.70;;;14.68;;
23260;SDS011;11799;47.740;-3.390;2022-12-18T06:48:26;30.50;;;15.23;;
23260;SDS011;11799;47.740;-3.390;2022-12-18T06:50:51;27.52;;;14.80;;
23260;SDS011;11799;47.740;-3.390;2022-12-18T06:53:17;31.08;;;15.55;;
23260;SDS011;11799;47.740;-3.390;2022-12-18T06:55:42;27.23;;;15.30;;
23260;SDS011;11799;47.740;-3.390;2022-12-18T06:58:08;23.90;;;13.93;;
23260;SDS011;11799;47.740;-3.390;2022-12-18T07:00:34;30.08;;;14.75;;
23260;SDS011;11799;47.740;-3.390;2022-12-18T07:02:59;25.67;;;15.13;;
23260;SDS011;11799;47.740;-3.390;2022-12-18T07:05:25;28.40;;;15.18;;
23260;SDS011;11799;47.740;-3.390;2022-12-18T07:07:51;28.70;;;14.35;;
23260;SDS011;11799;47.740;-3.390;2022-12-18T07:10:16;27.77;;;14.70;;
23260;SDS011;11799;47.740;-3.390;2022-12-18T07:12:42;30.42;;;15.02;;
23260;SDS011;11799;47.740;-3.390;2022-12-18T07:15:08;28.20;;;15.38;;
23260;SDS011;11799;47.740;-3.390;2022-12-18T07:17:34;23.42;;;14.60;;
23260;SDS011;11799;47.740;-3.390;2022-12-18T07:19:59;23.63;;;14.32;;
23260;SDS011;11799;47.740;-3.390;2022-12-18T07:22:26;25.45;;;14.48;;
23260;SDS011;11799;47.740;-3.390;2022-12-18T07:24:51;23.77;;;13.88;;
23260;SDS011;11799;47.740;-3.390;2022-12-18T07:27:17;22.05;;;13.90;;
23260;SDS011;11799;47.740;-3.390;2022-12-18T07:29:42;27.05;;;15.00;;
23260;SDS011;11799;47.740;-3.390;2022-12-18T07:32:08;26.63;;;14.15;;
23260;SDS011;11799;47.740;-3.390;2022-12-18T07:34:34;26.40;;;15.23;;
23260;SDS011;11799;47.740;-3.390;2022-12-18T07:36:59;24.88;;;14.50;;
23260;SDS011;11799;47.740;-3.390;2022-12-18T07:39:25;26.70;;;14.85;;
23260;SDS011;11799;47.740;-3.390;2022-12-18T07:41:50;28.50;;;15.07;;
23260;SDS011;11799;47.740;-3.390;2022-12-18T07:44:48;23.98;;;14.15;;
23260;SDS011;11799;47.740;-3.390;2022-12-18T07:47:14;22.48;;;14.68;;
23260;SDS011;11799;47.740;-3.390;2022-12-18T07:49:40;25.55;;;13.60;;
23260;SDS011;11799;47.740;-3.390;2022-12-18T07:52:05;24.08;;;14.80;;
23260;SDS011;11799;47.740;-3.390;2022-12-18T07:54:31;26.15;;;14.73;;
23260;SDS011;11799;47.740;-3.390;2022-12-18T07:56:57;23.73;;;14.07;;
23260;SDS011;11799;47.740;-3.390;2022-12-18T07:59:22;25.38;;;13.75;;
23260;SDS011;11799;47.740;-3.390;2022-12-18T08:01:48;25.60;;;13.25;;
23260;SDS011;11799;47.740;-3.390;2022-12-18T08:04:13;23.02;;;13.20;;
23260;SDS011;11799;47.740;-3.390;2022-12-18T08:06:39;20.10;;;13.10;;
23260;SDS011;11799;47.740;-3.390;2022-12-18T08:09:04;23.20;;;13.38;;
23260;SDS011;11799;47.740;-3.390;2022-12-18T08:11:30;23.85;;;12.77;;
23260;SDS011;11799;47.740;-3.390;2022-12-18T08:13:56;22.63;;;13.25;;
23260;SDS011;11799;47.740;-3.390;2022-12-18T08:16:22;22.45;;;12.90;;
23260;SDS011;11799;47.740;-3.390;2022-12-18T08:18:48;22.63;;;12.48;;
23260;SDS011;11799;47.740;-3.390;2022-12-18T08:21:17;22.58;;;12.77;;
23260;SDS011;11799;47.740;-3.390;2022-12-18T08:23:46;21.58;;;12.15;;
23260;SDS011;11799;47.740;-3.390;2022-12-18T08:26:12;23.08;;;13.50;;
23260;SDS011;11799;47.740;-3.390;2022-12-18T08:28:38;20.10;;;12.43;;
23260;SDS011;11799;47.740;-3.390;2022-12-18T08:31:05;23.10;;;12.38;;
23260;SDS011;11799;47.740;-3.390;2022-12-18T08:33:31;23.02;;;12.27;;
23260;SDS011;11799;47.740;-3.390;2022-12-18T08:35:58;21.05;;;11.20;;
23260;SDS011;11799;47.740;-3.390;2022-12-18T08:38:25;22.42;;;12.38;;
23260;SDS011;11799;47.740;-3.390;2022-12-18T08:40:58;22.35;;;13.07;;
23260;SDS011;11799;47.740;-3.390;2022-12-18T08:43:27;21.42;;;12.13;;
23260;SDS011;11799;47.740;-3.390;2022-12-18T08:46:11;22.17;;;12.27;;
23260;SDS011;11799;47.740;-3.390;2022-12-18T08:48:37;25.00;;;13.98;;
23260;SDS011;11799;47.740;-3.390;2022-12-18T08:51:03;24.83;;;12.82;;
23260;SDS011;11799;47.740;-3.390;2022-12-18T08:53:29;23.92;;;12.73;;
23260;SDS011;11799;47.740;-3.390;2022-12-18T08:55:56;21.33;;;12.38;;
23260;SDS011;11799;47.740;-3.390;2022-12-18T08:58:21;20.38;;;11.75;;
23260;SDS011;11799;47.740;-3.390;2022-12-18T09:00:47;20.73;;;12.23;;
23260;SDS011;11799;47.740;-3.390;2022-12-18T09:03:13;25.08;;;11.35;;
23260;SDS011;11799;47.740;-3.390;2022-12-18T09:05:40;21.73;;;10.75;;
23260;SDS011;11799;47.740;-3.390;2022-12-18T09:08:06;23.02;;;11.15;;
23260;SDS011;11799;47.740;-3.390;2022-12-18T09:10:32;24.08;;;10.77;;
23260;SDS011;11799;47.740;-3.390;2022-12-18T09:12:57;24.35;;;11.65;;
23260;SDS011;11799;47.740;-3.390;2022-12-18T09:15:23;26.98;;;12.35;;
23260;SDS011;11799;47.740;-3.390;2022-12-18T09:17:49;21.60;;;11.73;;
23260;SDS011;11799;47.740;-3.390;2022-12-18T09:20:15;24.23;;;11.48;;
23260;SDS011;11799;47.740;-3.390;2022-12-18T09:22:41;25.60;;;11.20;;
23260;SDS011;11799;47.740;-3.390;2022-12-18T09:25:07;31.95;;;11.38;;
23260;SDS011;11799;47.740;-3.390;2022-12-18T09:27:33;36.65;;;13.18;;
23260;SDS011;11799;47.740;-3.390;2022-12-18T09:29:59;23.27;;;11.70;;
23260;SDS011;11799;47.740;-3.390;2022-12-18T09:32:25;23.27;;;11.52;;
23260;SDS011;11799;47.740;-3.390;2022-12-18T09:34:51;22.52;;;11.60;;
23260;SDS011;11799;47.740;-3.390;2022-12-18T09:37:16;25.65;;;10.75;;
23260;SDS011;11799;47.740;-3.390;2022-12-18T09:39:43;21.55;;;11.52;;
23260;SDS011;11799;47.740;-3.390;2022-12-18T09:42:10;21.45;;;10.85;;
23260;SDS011;11799;47.740;-3.390;2022-12-18T09:44:48;27.73;;;11.32;;
23260;SDS011;11799;47.740;-3.390;2022-12-18T09:49:51;30.20;;;10.55;;
23260;SDS011;11799;47.740;-3.390;2022-12-18T09:55:14;32.75;;;11.10;;
23260;SDS011;11799;47.740;-3.390;2022-12-18T09:58:13;31.80;;;10.10;;
23260;SDS011;11799;47.740;-3.390;2022-12-18T10:00:39;33.38;;;10.55;;
23260;SDS011;11799;47.740;-3.390;2022-12-18T10:03:10;32.10;;;11.52;;
23260;SDS011;11799;47.740;-3.390;2022-12-18T10:10:50;30.23;;;12.43;;
23260;SDS011;11799;47.740;-3.390;2022-12-18T10:13:38;42.70;;;13.40;;
23260;SDS011;11799;47.740;-3.390;2022-12-18T10:19:11;27.92;;;11.75;;
23260;SDS011;11799;47.740;-3.390;2022-12-18T10:24:33;19.73;;;10.23;;
23260;SDS011;11799;47.740;-3.390;2022-12-18T10:27:09;27.90;;;12.55;;
23260;SDS011;11799;47.740;-3.390;2022-12-18T10:29:41;27.42;;;11.60;;
23260;SDS011;11799;47.740;-3.390;2022-12-18T10:32:12;37.35;;;11.07;;
23260;SDS011;11799;47.740;-3.390;2022-12-18T10:34:50;39.28;;;12.38;;
23260;SDS011;11799;47.740;-3.390;2022-12-18T10:37:17;29.08;;;11.90;;
23260;SDS011;11799;47.740;-3.390;2022-12-18T10:39:46;29.25;;;11.63;;
23260;SDS011;11799;47.740;-3.390;2022-12-18T10:42:29;33.13;;;12.13;;
23260;SDS011;11799;47.740;-3.390;2022-12-18T10:45:28;32.67;;;12.60;;
23260;SDS011;11799;47.740;-3.390;2022-12-18T10:47:47;30.27;;;12.45;;
23260;SDS011;11799;47.740;-3.390;2022-12-18T10:52:54;27.83;;;11.93;;
23260;SDS011;11799;47.740;-3.390;2022-12-18T10:55:31;31.88;;;12.85;;
23260;SDS011;11799;47.740;-3.390;2022-12-18T10:58:18;36.35;;;12.77;;
23260;SDS011;11799;47.740;-3.390;2022-12-18T11:01:13;40.80;;;13.15;;
23260;SDS011;11799;47.740;-3.390;2022-12-18T11:06:27;31.38;;;12.23;;
23260;SDS011;11799;47.740;-3.390;2022-12-18T11:08:59;34.30;;;12.48;;
23260;SDS011;11799;47.740;-3.390;2022-12-18T11:11:27;31.38;;;12.70;;
23260;SDS011;11799;47.740;-3.390;2022-12-18T11:13:58;29.80;;;12.63;;
23260;SDS011;11799;47.740;-3.390;2022-12-18T11:16:30;30.40;;;12.25;;
23260;SDS011;11799;47.740;-3.390;2022-12-18T11:19:09;32.72;;;12.80;;
23260;SDS011;11799;47.740;-3.390;2022-12-18T11:21:47;32.45;;;12.00;;
23260;SDS011;11799;47.740;-3.390;2022-12-18T11:24:20;36.67;;;12.50;;
23260;SDS011;11799;47.740;-3.390;2022-12-18T11:26:46;27.70;;;13.25;;
23260;SDS011;11799;47.740;-3.390;2022-12-18T11:29:16;26.10;;;11.95;;
23260;SDS011;11799;47.740;-3.390;2022-12-18T11:31:43;41.22;;;11.90;;
23260;SDS011;11799;47.740;-3.390;2022-12-18T11:36:53;29.23;;;11.38;;
23260;SDS011;11799;47.740;-3.390;2022-12-18T11:42:04;34.65;;;10.65;;
23260;SDS011;11799;47.740;-3.390;2022-12-18T11:47:11;28.98;;;10.68;;
23260;SDS011;11799;47.740;-3.390;2022-12-18T11:49:47;32.47;;;11.05;;
23260;SDS011;11799;47.740;-3.390;2022-12-18T11:52:22;38.30;;;10.52;;
23260;SDS011;11799;47.740;-3.390;2022-12-18T11:55:07;31.40;;;9.68;;
23260;SDS011;11799;47.740;-3.390;2022-12-18T11:57:53;24.23;;;9.73;;
23260;SDS011;11799;47.740;-3.390;2022-12-18T12:00:21;43.47;;;11.20;;
23260;SDS011;11799;47.740;-3.390;2022-12-18T12:02:53;37.38;;;10.57;;
23260;SDS011;11799;47.740;-3.390;2022-12-18T12:06:20;37.17;;;10.57;;
23260;SDS011;11799;47.740;-3.390;2022-12-18T12:14:37;29.42;;;8.48;;
23260;SDS011;11799;47.740;-3.390;2022-12-18T12:17:41;36.75;;;9.32;;
23260;SDS011;11799;47.740;-3.390;2022-12-18T12:20:22;37.67;;;10.07;;
23260;SDS011;11799;47.740;-3.390;2022-12-18T12:22:58;30.55;;;9.98;;
23260;SDS011;11799;47.740;-3.390;2022-12-18T12:25:37;30.48;;;9.20;;
23260;SDS011;11799;47.740;-3.390;2022-12-18T12:36:26;27.95;;;8.70;;
23260;SDS011;11799;47.740;-3.390;2022-12-18T12:38:59;21.95;;;8.48;;
23260;SDS011;11799;47.740;-3.390;2022-12-18T12:41:30;35.03;;;9.73;;
23260;SDS011;11799;47.740;-3.390;2022-12-18T12:44:25;32.85;;;10.13;;
23260;SDS011;11799;47.740;-3.390;2022-12-18T12:46:57;36.08;;;10.15;;
23260;SDS011;11799;47.740;-3.390;2022-12-18T12:49:29;37.40;;;9.80;;
23260;SDS011;11799;47.740;-3.390;2022-12-18T12:55:00;28.20;;;9.15;;
23260;SDS011;11799;47.740;-3.390;2022-12-18T12:57:40;36.83;;;8.70;;
23260;SDS011;11799;47.740;-3.390;2022-12-18T13:00:18;29.35;;;8.43;;
23260;SDS011;11799;47.740;-3.390;2022-12-18T13:05:45;36.85;;;8.20;;
23260;SDS011;11799;47.740;-3.390;2022-12-18T13:08:30;30.80;;;6.65;;
23260;SDS011;11799;47.740;-3.390;2022-12-18T13:10:58;24.17;;;6.63;;
23260;SDS011;11799;47.740;-3.390;2022-12-18T13:13:55;26.00;;;6.55;;
23260;SDS011;11799;47.740;-3.390;2022-12-18T13:16:22;27.00;;;7.43;;
23260;SDS011;11799;47.740;-3.390;2022-12-18T13:18:50;30.55;;;5.85;;
23260;SDS011;11799;47.740;-3.390;2022-12-18T13:21:23;23.67;;;5.60;;
23260;SDS011;11799;47.740;-3.390;2022-12-18T13:23:52;26.00;;;5.45;;
23260;SDS011;11799;47.740;-3.390;2022-12-18T13:31:13;24.13;;;5.30;;
23260;SDS011;11799;47.740;-3.390;2022-12-18T13:36:51;20.33;;;4.63;;
23260;SDS011;11799;47.740;-3.390;2022-12-18T13:41:47;24.35;;;5.30;;
23260;SDS011;11799;47.740;-3.390;2022-12-18T13:44:55;22.23;;;5.13;;
23260;SDS011;11799;47.740;-3.390;2022-12-18T13:47:25;20.58;;;5.07;;
23260;SDS011;11799;47.740;-3.390;2022-12-18T13:49:51;27.05;;;4.80;;
23260;SDS011;11799;47.740;-3.390;2022-12-18T13:52:19;22.98;;;5.20;;
23260;SDS011;11799;47.740;-3.390;2022-12-18T13:54:50;32.60;;;5.20;;
23260;SDS011;11799;47.740;-3.390;2022-12-18T13:59:54;27.92;;;5.32;;
23260;SDS011;11799;47.740;-3.390;2022-12-18T14:02:21;19.67;;;5.03;;
23260;SDS011;11799;47.740;-3.390;2022-12-18T14:04:49;24.08;;;4.90;;
23260;SDS011;11799;47.740;-3.390;2022-12-18T14:07:20;26.48;;;4.70;;
23260;SDS011;11799;47.740;-3.390;2022-12-18T14:12:30;24.88;;;5.90;;
23260;SDS011;11799;47.740;-3.390;2022-12-18T14:15:38;37.65;;;5.55;;
23260;SDS011;11799;47.740;-3.390;2022-12-18T14:21:03;29.67;;;5.20;;
23260;SDS011;11799;47.740;-3.390;2022-12-18T14:23:39;28.13;;;5.72;;
23260;SDS011;11799;47.740;-3.390;2022-12-18T14:29:21;29.17;;;5.70;;
23260;SDS011;11799;47.740;-3.390;2022-12-18T14:32:04;28.48;;;5.35;;
23260;SDS011;11799;47.740;-3.390;2022-12-18T14:34:31;27.10;;;6.15;;
23260;SDS011;11799;47.740;-3.390;2022-12-18T14:36:56;19.77;;;5.10;;
23260;SDS011;11799;47.740;-3.390;2022-12-18T14:39:22;22.20;;;4.93;;
23260;SDS011;11799;47.740;-3.390;2022-12-18T14:41:50;26.80;;;5.57;;
23260;SDS011;11799;47.740;-3.390;2022-12-18T14:44:16;30.73;;;5.75;;
23260;SDS011;11799;47.740;-3.390;2022-12-18T14:46:43;25.88;;;5.55;;
23260;SDS011;11799;47.740;-3.390;2022-12-18T14:51:55;21.58;;;4.60;;
23260;SDS011;11799;47.740;-3.390;2022-12-18T14:54:23;32.33;;;5.88;;
23260;SDS011;11799;47.740;-3.390;2022-12-18T14:57:35;22.70;;;4.50;;
23260;SDS011;11799;47.740;-3.390;2022-12-18T14:59:45;27.40;;;4.65;;
23260;SDS011;11799;47.740;-3.390;2022-12-18T15:04:53;21.27;;;3.88;;
23260;SDS011;11799;47.740;-3.390;2022-12-18T15:07:25;30.75;;;5.05;;
23260;SDS011;11799;47.740;-3.390;2022-12-18T15:10:09;20.98;;;4.70;;
23260;SDS011;11799;47.740;-3.390;2022-12-18T15:12:41;40.10;;;5.20;;
23260;SDS011;11799;47.740;-3.390;2022-12-18T15:20:44;34.28;;;5.47;;
23260;SDS011;11799;47.740;-3.390;2022-12-18T15:23:18;35.05;;;5.72;;
23260;SDS011;11799;47.740;-3.390;2022-12-18T15:25:45;31.63;;;5.40;;
23260;SDS011;11799;47.740;-3.390;2022-12-18T15:28:45;36.30;;;5.35;;
23260;SDS011;11799;47.740;-3.390;2022-12-18T15:33:37;36.17;;;6.60;;
23260;SDS011;11799;47.740;-3.390;2022-12-18T15:36:07;34.83;;;6.00;;
23260;SDS011;11799;47.740;-3.390;2022-12-18T15:38:35;33.28;;;5.57;;
23260;SDS011;11799;47.740;-3.390;2022-12-18T15:41:01;31.00;;;5.53;;
23260;SDS011;11799;47.740;-3.390;2022-12-18T15:43:30;29.10;;;4.75;;
23260;SDS011;11799;47.740;-3.390;2022-12-18T15:45:59;22.75;;;4.40;;
23260;SDS011;11799;47.740;-3.390;2022-12-18T15:50:55;22.80;;;4.28;;
23260;SDS011;11799;47.740;-3.390;2022-12-18T15:53:24;20.60;;;4.28;;
23260;SDS011;11799;47.740;-3.390;2022-12-18T15:55:53;16.15;;;4.10;;
23260;SDS011;11799;47.740;-3.390;2022-12-18T15:58:37;29.83;;;5.05;;
23260;SDS011;11799;47.740;-3.390;2022-12-18T16:01:02;25.45;;;4.07;;
23260;SDS011;11799;47.740;-3.390;2022-12-18T16:03:28;23.30;;;4.43;;
23260;SDS011;11799;47.740;-3.390;2022-12-18T16:05:54;23.38;;;4.47;;
23260;SDS011;11799;47.740;-3.390;2022-12-18T16:08:19;12.63;;;3.97;;
23260;SDS011;11799;47.740;-3.390;2022-12-18T16:10:45;28.92;;;5.25;;
23260;SDS011;11799;47.740;-3.390;2022-12-18T16:13:11;19.27;;;4.40;;
23260;SDS011;11799;47.740;-3.390;2022-12-18T16:15:39;20.15;;;4.47;;
23260;SDS011;11799;47.740;-3.390;2022-12-18T16:18:04;23.40;;;4.90;;
23260;SDS011;11799;47.740;-3.390;2022-12-18T16:20:30;26.85;;;5.65;;